createdAt,value
2019-03-19T00:01:14.442Z,3.40
2019-03-19T00:03:44.545Z,3.40
2019-03-19T00:06:15.712Z,3.40
2019-03-19T00:08:45.911Z,3.40
2019-03-19T00:11:17.094Z,3.30
2019-03-19T00:13:47.122Z,3.30
2019-03-19T00:16:17.295Z,3.30
2019-03-19T00:18:47.548Z,3.30
2019-03-19T00:21:36.659Z,3.30
2019-03-19T00:24:06.757Z,3.30
2019-03-19T00:26:37.113Z,3.20
2019-03-19T00:29:07.197Z,3.10
2019-03-19T00:31:37.257Z,3.10
2019-03-19T00:34:07.293Z,3.10
2019-03-19T00:36:37.487Z,3.00
2019-03-19T00:39:08.301Z,3.00
2019-03-19T00:41:38.418Z,2.90
2019-03-19T00:44:08.538Z,2.90
2019-03-19T00:46:39.613Z,2.90
2019-03-19T00:49:09.801Z,2.90
2019-03-19T00:51:39.857Z,2.80
2019-03-19T00:54:09.950Z,2.80
2019-03-19T00:56:40.007Z,2.80
2019-03-19T00:59:10.173Z,2.80
2019-03-19T01:01:40.270Z,2.80
2019-03-19T01:04:10.314Z,2.80
2019-03-19T01:06:40.369Z,2.80
2019-03-19T01:09:10.548Z,2.70
2019-03-19T01:11:40.614Z,2.80
2019-03-19T01:14:10.781Z,2.80
2019-03-19T01:16:41.127Z,2.80
2019-03-19T01:19:11.190Z,2.80
2019-03-19T01:21:41.337Z,2.70
2019-03-19T01:24:11.555Z,2.70
2019-03-19T01:26:41.715Z,2.60
2019-03-19T01:29:11.795Z,2.60
2019-03-19T01:31:41.858Z,2.60
2019-03-19T01:34:11.938Z,2.60
2019-03-19T01:36:42.055Z,2.60
2019-03-19T01:39:13.274Z,2.50
2019-03-19T01:41:43.506Z,2.40
2019-03-19T01:44:13.704Z,2.40
2019-03-19T01:46:43.862Z,2.30
2019-03-19T01:49:13.934Z,2.30
2019-03-19T01:51:44.042Z,2.30
2019-03-19T01:54:14.187Z,2.30
2019-03-19T01:56:44.263Z,2.20
2019-03-19T01:59:14.649Z,2.20
2019-03-19T02:01:44.823Z,2.20
2019-03-19T02:04:14.995Z,2.20
2019-03-19T02:06:45.122Z,2.20
2019-03-19T02:09:15.258Z,2.20
2019-03-19T02:11:45.481Z,2.20
2019-03-19T02:14:15.690Z,2.20
2019-03-19T02:16:45.796Z,2.20
2019-03-19T02:19:15.922Z,2.20
2019-03-19T02:21:46.162Z,2.20
2019-03-19T02:24:16.345Z,2.20
2019-03-19T02:26:46.465Z,2.20
2019-03-19T02:29:16.712Z,2.30
2019-03-19T02:31:46.859Z,2.30
2019-03-19T02:34:17.111Z,2.40
2019-03-19T02:36:47.364Z,2.40
2019-03-19T02:39:17.500Z,2.50
2019-03-19T02:41:47.701Z,2.50
2019-03-19T02:44:17.867Z,2.60
2019-03-19T02:46:47.930Z,2.70
2019-03-19T02:49:18.143Z,2.70
2019-03-19T02:51:48.223Z,2.70
2019-03-19T02:54:18.414Z,2.70
2019-03-19T02:56:48.572Z,2.60
2019-03-19T02:59:18.770Z,2.60
2019-03-19T03:01:48.956Z,2.50
2019-03-19T03:04:19.314Z,2.50
2019-03-19T03:06:49.358Z,2.50
2019-03-19T03:09:20.750Z,2.40
2019-03-19T03:11:50.819Z,2.40
2019-03-19T03:14:20.995Z,2.30
2019-03-19T03:16:51.294Z,2.30
2019-03-19T03:19:21.434Z,2.30
2019-03-19T03:21:51.572Z,2.30
2019-03-19T03:24:22.255Z,2.20
2019-03-19T03:26:52.598Z,2.20
2019-03-19T03:29:22.864Z,2.20
2019-03-19T03:31:52.922Z,2.20
2019-03-19T03:34:24.017Z,2.10
2019-03-19T03:36:55.270Z,2.10
2019-03-19T03:39:25.453Z,2.10
2019-03-19T03:41:55.585Z,2.10
2019-03-19T03:44:25.899Z,2.20
2019-03-19T03:46:56.058Z,2.20
2019-03-19T03:49:26.267Z,2.20
2019-03-19T03:51:56.546Z,2.20
2019-03-19T03:54:26.643Z,2.10
2019-03-19T03:57:02.601Z,2.10
2019-03-19T03:59:28.651Z,2.20
2019-03-19T04:01:58.781Z,2.20
2019-03-19T04:04:28.964Z,2.20
2019-03-19T04:06:59.053Z,2.20
2019-03-19T04:09:29.173Z,2.20
2019-03-19T04:11:59.488Z,2.20
2019-03-19T04:14:29.622Z,2.20
2019-03-19T04:16:59.770Z,2.20
2019-03-19T04:19:30.029Z,2.20
2019-03-19T04:22:00.219Z,2.20
2019-03-19T04:24:30.446Z,2.20
2019-03-19T04:27:00.510Z,2.10
2019-03-19T04:29:30.645Z,2.10
2019-03-19T04:32:00.890Z,2.10
2019-03-19T04:34:31.269Z,2.10
2019-03-19T04:37:01.529Z,2.10
2019-03-19T04:39:31.630Z,2.00
2019-03-19T04:42:01.904Z,2.00
2019-03-19T04:44:32.097Z,2.00
2019-03-19T04:47:02.244Z,2.00
2019-03-19T04:49:32.482Z,2.00
2019-03-19T04:52:02.647Z,2.00
2019-03-19T04:54:32.758Z,2.00
2019-03-19T04:57:02.870Z,2.00
2019-03-19T04:59:33.108Z,2.00
2019-03-19T05:02:03.162Z,2.00
2019-03-19T05:04:33.356Z,2.00
2019-03-19T05:07:03.546Z,2.10
2019-03-19T05:09:33.731Z,2.10
2019-03-19T05:12:03.846Z,2.20
2019-03-19T05:14:33.950Z,2.20
2019-03-19T05:17:05.145Z,2.30
2019-03-19T05:19:35.360Z,2.30
2019-03-19T05:22:05.454Z,2.50
2019-03-19T05:24:35.710Z,2.50
2019-03-19T05:27:05.877Z,2.50
2019-03-19T05:29:36.102Z,2.60
2019-03-19T05:32:06.174Z,2.60
2019-03-19T05:34:36.195Z,2.70
2019-03-19T05:37:06.276Z,2.70
2019-03-19T05:39:36.469Z,2.70
2019-03-19T05:42:06.534Z,2.80
2019-03-19T05:44:36.813Z,2.80
2019-03-19T05:47:06.874Z,2.90
2019-03-19T05:49:37.057Z,3.00
2019-03-19T05:52:07.158Z,3.10
2019-03-19T05:54:37.300Z,3.10
2019-03-19T05:57:07.378Z,3.30
2019-03-19T05:59:39.909Z,3.30
2019-03-19T06:02:09.391Z,3.30
2019-03-19T06:04:39.571Z,3.40
2019-03-19T06:07:09.834Z,3.40
2019-03-19T06:09:40.067Z,3.50
2019-03-19T06:12:10.150Z,3.60
2019-03-19T06:14:40.191Z,3.70
2019-03-19T06:17:10.213Z,3.80
2019-03-19T06:19:41.470Z,3.90
2019-03-19T06:22:11.586Z,4.00
2019-03-19T06:24:41.647Z,4.20
2019-03-19T06:27:11.802Z,4.40
2019-03-19T06:29:41.987Z,4.50
2019-03-19T06:32:12.217Z,4.60
2019-03-19T06:34:42.309Z,4.60
2019-03-19T06:37:12.523Z,4.60
2019-03-19T06:39:42.668Z,4.60
2019-03-19T06:42:13.939Z,4.60
2019-03-19T06:44:44.070Z,4.70
2019-03-19T06:47:15.055Z,4.80
2019-03-19T06:49:45.151Z,4.80
2019-03-19T06:52:15.298Z,4.80
2019-03-19T06:54:45.350Z,4.80
2019-03-19T06:57:15.572Z,4.80
2019-03-19T06:59:45.597Z,4.80
2019-03-19T07:02:15.806Z,4.90
2019-03-19T07:04:45.970Z,5.10
2019-03-19T07:07:16.117Z,5.00
2019-03-19T07:09:46.382Z,5.10
2019-03-19T07:12:16.521Z,5.10
2019-03-19T07:14:46.643Z,5.20
2019-03-19T07:17:16.766Z,5.30
2019-03-19T07:19:47.135Z,5.30
2019-03-19T07:22:17.229Z,5.50
2019-03-19T07:24:48.238Z,5.40
2019-03-19T07:27:18.470Z,5.50
2019-03-19T07:29:48.555Z,5.60
2019-03-19T07:32:18.722Z,5.80
2019-03-19T07:34:49.162Z,5.90
2019-03-19T07:37:19.242Z,6.00
2019-03-19T07:39:49.362Z,6.10
2019-03-19T07:42:19.573Z,6.40
2019-03-19T07:44:49.678Z,6.60
2019-03-19T07:47:19.814Z,6.80
2019-03-19T07:49:49.893Z,6.80
2019-03-19T07:52:20.047Z,6.80
2019-03-19T07:54:50.170Z,6.70
2019-03-19T07:57:20.249Z,6.70
2019-03-19T07:59:50.273Z,6.60
2019-03-19T08:02:20.494Z,6.50
2019-03-19T08:04:51.694Z,6.40
2019-03-19T08:07:21.753Z,6.50
2019-03-19T08:09:51.826Z,6.50
2019-03-19T08:12:21.850Z,6.40
2019-03-19T08:14:52.008Z,6.30
2019-03-19T08:17:23.351Z,6.30
2019-03-19T08:19:53.434Z,6.30
2019-03-19T08:22:23.514Z,6.30
2019-03-19T08:24:53.692Z,6.30
2019-03-19T08:27:23.996Z,6.30
2019-03-19T08:29:54.263Z,6.40
2019-03-19T08:32:24.637Z,6.60
2019-03-19T08:34:54.744Z,7.00
2019-03-19T08:37:24.869Z,7.70
2019-03-19T08:39:56.812Z,8.30
2019-03-19T08:42:27.198Z,8.40
2019-03-19T08:44:57.447Z,8.30
2019-03-19T08:47:27.655Z,7.80
2019-03-19T08:49:57.732Z,7.40
2019-03-19T08:52:27.860Z,7.10
2019-03-19T08:54:59.179Z,6.90
2019-03-19T08:57:29.286Z,6.80
2019-03-19T08:59:59.409Z,6.80
2019-03-19T09:02:29.644Z,6.70
2019-03-19T09:04:59.750Z,6.80
2019-03-19T09:07:29.932Z,6.80
2019-03-19T09:10:00.011Z,6.90
2019-03-19T09:12:30.395Z,7.00
2019-03-19T09:15:00.499Z,7.10
2019-03-19T09:17:30.590Z,7.10
2019-03-19T09:20:00.674Z,7.20
2019-03-19T09:22:30.865Z,7.40
2019-03-19T09:25:01.165Z,7.50
2019-03-19T09:27:31.478Z,7.60
2019-03-19T09:30:01.733Z,7.60
2019-03-19T09:32:31.987Z,7.60
2019-03-19T09:35:02.298Z,7.70
2019-03-19T09:37:32.473Z,7.80
2019-03-19T09:40:02.829Z,7.80
2019-03-19T09:42:33.073Z,7.70
2019-03-19T09:45:03.270Z,7.60
2019-03-19T09:47:34.476Z,7.50
2019-03-19T09:50:05.334Z,7.50
2019-03-19T09:52:35.585Z,7.50
2019-03-19T09:55:06.405Z,7.50
2019-03-19T09:57:36.484Z,7.60
2019-03-19T10:00:08.079Z,8.00
2019-03-19T10:02:38.169Z,8.60
2019-03-19T10:05:08.467Z,8.70
2019-03-19T10:07:38.499Z,8.70
2019-03-19T10:10:09.850Z,8.50
2019-03-19T10:12:40.106Z,8.90
2019-03-19T10:15:10.516Z,8.90
2019-03-19T10:17:40.833Z,8.90
2019-03-19T10:20:12.753Z,8.80
2019-03-19T10:22:42.960Z,9.00
2019-03-19T10:25:13.088Z,9.00
2019-03-19T10:27:43.725Z,8.50
2019-03-19T10:30:16.564Z,8.30
2019-03-19T10:36:16.220Z,7.80
2019-03-19T10:38:46.421Z,8.20
2019-03-19T10:41:16.478Z,8.40
2019-03-19T10:43:46.535Z,8.70
2019-03-19T10:46:16.727Z,9.10
2019-03-19T10:48:46.877Z,9.20
2019-03-19T10:51:17.062Z,9.10
2019-03-19T10:53:47.308Z,8.80
2019-03-19T10:56:17.430Z,9.00
2019-03-19T10:58:47.570Z,9.70
2019-03-19T11:01:17.702Z,9.90
2019-03-19T11:03:47.834Z,9.70
2019-03-19T11:06:17.873Z,9.20
2019-03-19T11:08:47.986Z,8.70
2019-03-19T11:11:18.154Z,8.40
2019-03-19T11:13:48.449Z,8.20
2019-03-19T11:16:18.595Z,8.00
2019-03-19T11:18:48.791Z,7.90
2019-03-19T11:21:19.010Z,7.70
2019-03-19T11:23:49.162Z,7.60
2019-03-19T11:26:19.400Z,7.50
2019-03-19T11:28:49.498Z,7.40
2019-03-19T11:31:19.541Z,7.40
2019-03-19T11:33:49.896Z,7.40
2019-03-19T11:36:20.450Z,7.40
2019-03-19T11:38:50.578Z,7.50
2019-03-19T11:41:20.690Z,7.60
2019-03-19T11:43:50.790Z,7.80
2019-03-19T11:46:21.062Z,7.90
2019-03-19T11:48:52.198Z,7.90
2019-03-19T11:51:22.390Z,7.80
2019-03-19T11:53:54.059Z,7.50
2019-03-19T11:56:24.174Z,7.40
2019-03-19T11:58:55.322Z,7.30
2019-03-19T12:01:25.631Z,7.20
2019-03-19T12:03:55.803Z,7.10
2019-03-19T12:06:26.006Z,7.00
2019-03-19T12:08:56.078Z,7.00
2019-03-19T12:11:26.104Z,7.00
2019-03-19T12:13:56.417Z,7.00
2019-03-19T12:16:26.447Z,7.00
2019-03-19T12:18:56.511Z,7.10
2019-03-19T12:21:26.657Z,7.10
2019-03-19T12:23:56.769Z,7.30
2019-03-19T12:26:26.817Z,7.30
2019-03-19T12:28:56.879Z,7.40
2019-03-19T12:31:27.362Z,7.60
2019-03-19T12:33:57.517Z,7.70
2019-03-19T12:36:27.683Z,8.00
2019-03-19T12:38:57.961Z,8.60
2019-03-19T12:41:27.985Z,8.90
2019-03-19T12:43:58.187Z,9.10
2019-03-19T12:46:28.375Z,9.40
2019-03-19T12:48:59.315Z,9.90
2019-03-19T12:51:29.339Z,10.20
2019-03-19T12:53:59.603Z,10.50
2019-03-19T12:56:29.631Z,10.90
2019-03-19T12:58:59.962Z,11.20
2019-03-19T13:01:30.137Z,10.60
2019-03-19T13:04:00.385Z,10.30
2019-03-19T13:06:30.586Z,9.50
2019-03-19T13:09:00.703Z,9.00
2019-03-19T13:11:32.046Z,8.90
2019-03-19T13:14:02.335Z,8.60
2019-03-19T13:16:32.446Z,8.40
2019-03-19T13:19:03.085Z,8.20
2019-03-19T13:21:33.187Z,8.20
2019-03-19T13:24:03.422Z,8.10
2019-03-19T13:26:33.534Z,8.10
2019-03-19T13:29:03.681Z,8.00
2019-03-19T13:31:33.704Z,8.00
2019-03-19T13:34:03.894Z,8.00
2019-03-19T13:36:34.130Z,7.90
2019-03-19T13:39:06.262Z,7.90
2019-03-19T13:41:36.511Z,8.00
2019-03-19T13:44:06.606Z,8.00
2019-03-19T13:46:37.774Z,8.00
2019-03-19T13:49:08.869Z,8.00
2019-03-19T13:51:38.929Z,8.00
2019-03-19T13:54:09.242Z,8.00
2019-03-19T13:56:39.278Z,8.00
2019-03-19T13:59:09.355Z,8.00
2019-03-19T14:01:39.455Z,8.00
2019-03-19T14:04:09.525Z,8.00
2019-03-19T14:06:39.912Z,7.90
2019-03-19T14:09:10.516Z,8.00
2019-03-19T14:11:41.198Z,8.10
2019-03-19T14:14:12.314Z,8.20
2019-03-19T14:16:42.555Z,8.20
2019-03-19T14:19:14.646Z,8.30
2019-03-19T14:21:44.702Z,8.30
2019-03-19T14:24:14.854Z,8.50
2019-03-19T14:26:44.943Z,8.60
2019-03-19T14:29:14.974Z,8.60
2019-03-19T14:31:45.006Z,8.50
2019-03-19T14:34:15.033Z,8.60
2019-03-19T14:36:45.201Z,8.60
2019-03-19T14:39:15.470Z,8.50
2019-03-19T14:41:45.769Z,8.60
2019-03-19T14:44:16.041Z,8.60
2019-03-19T14:46:57.866Z,8.60
2019-03-19T14:49:29.253Z,8.50
2019-03-19T14:51:59.369Z,8.50
2019-03-19T14:54:29.491Z,8.40
2019-03-19T14:56:59.765Z,8.40
2019-03-19T14:59:29.917Z,8.40
2019-03-19T15:02:00.213Z,8.50
2019-03-19T15:04:30.334Z,8.40
2019-03-19T15:07:00.492Z,8.30
2019-03-19T15:09:30.666Z,8.20
2019-03-19T15:12:00.968Z,8.10
2019-03-19T15:14:31.212Z,8.20
2019-03-19T15:17:05.219Z,8.10
2019-03-19T15:19:33.183Z,8.00
2019-03-19T15:22:03.422Z,7.90
2019-03-19T15:24:33.847Z,7.80
2019-03-19T15:27:04.018Z,7.70
2019-03-19T15:29:34.129Z,7.70
2019-03-19T15:32:04.309Z,7.60
2019-03-19T15:34:34.479Z,7.60
2019-03-19T15:37:04.592Z,7.50
2019-03-19T15:39:34.783Z,7.50
2019-03-19T15:42:04.914Z,7.50
2019-03-19T15:44:35.090Z,7.30
2019-03-19T15:47:05.205Z,7.30
2019-03-19T15:49:38.550Z,7.30
2019-03-19T15:52:07.131Z,7.30
2019-03-19T15:54:38.342Z,7.30
2019-03-19T15:57:08.642Z,7.30
2019-03-19T15:59:38.862Z,7.30
2019-03-19T16:02:09.024Z,7.20
2019-03-19T16:04:39.198Z,7.10
2019-03-19T16:07:09.449Z,7.10
2019-03-19T16:09:39.573Z,7.10
2019-03-19T16:12:09.624Z,7.00
2019-03-19T16:14:39.870Z,7.00
2019-03-19T16:17:10.170Z,7.00
2019-03-19T16:19:40.464Z,6.90
2019-03-19T16:22:10.618Z,6.90
2019-03-19T16:24:41.769Z,6.90
2019-03-19T16:27:11.799Z,6.90
2019-03-19T16:29:41.915Z,6.90
2019-03-19T16:32:12.114Z,6.90
2019-03-19T16:34:42.546Z,6.80
2019-03-19T16:37:12.787Z,6.80
2019-03-19T16:39:42.834Z,6.80
2019-03-19T16:42:13.005Z,6.70
2019-03-19T16:44:43.294Z,6.60
2019-03-19T16:47:13.608Z,6.60
2019-03-19T16:49:43.882Z,6.60
2019-03-19T16:52:14.058Z,6.60
2019-03-19T16:54:44.239Z,6.60
2019-03-19T16:57:14.490Z,6.50
2019-03-19T16:59:44.547Z,6.50
2019-03-19T17:02:14.726Z,6.50
2019-03-19T17:04:44.949Z,6.40
2019-03-19T17:07:15.030Z,6.30
2019-03-19T17:09:46.233Z,6.30
2019-03-19T17:12:16.478Z,6.10
2019-03-19T17:14:46.787Z,6.00
2019-03-19T17:17:16.948Z,6.00
2019-03-19T17:19:47.204Z,5.80
2019-03-19T17:22:17.354Z,5.70
2019-03-19T17:24:48.789Z,5.60
2019-03-19T17:27:19.092Z,5.50
2019-03-19T17:29:50.590Z,5.40
2019-03-19T17:32:20.634Z,5.30
2019-03-19T17:34:50.834Z,5.20
2019-03-19T17:37:20.958Z,5.10
2019-03-19T17:39:51.163Z,5.00
2019-03-19T17:42:21.363Z,4.90
2019-03-19T17:44:51.456Z,4.80
2019-03-19T17:47:21.722Z,4.70
2019-03-19T17:49:51.867Z,4.70
2019-03-19T17:52:22.196Z,4.60
2019-03-19T17:54:52.359Z,4.60
2019-03-19T17:57:22.746Z,4.50
2019-03-19T17:59:52.982Z,4.40
2019-03-19T18:02:24.192Z,4.30
2019-03-19T18:04:55.841Z,4.30
2019-03-19T18:07:26.058Z,4.20
2019-03-19T18:09:56.113Z,4.20
2019-03-19T18:12:26.354Z,4.10
2019-03-19T18:14:58.163Z,4.10
2019-03-19T18:17:28.362Z,4.00
2019-03-19T18:19:58.663Z,4.00
2019-03-19T18:22:28.865Z,4.00
2019-03-19T18:24:58.973Z,4.00
2019-03-19T18:27:29.014Z,4.00
2019-03-19T18:29:59.256Z,3.90
2019-03-19T18:32:35.111Z,3.90
2019-03-19T18:35:01.363Z,3.90
2019-03-19T18:37:31.606Z,3.80
2019-03-19T18:40:01.718Z,3.80
2019-03-19T18:42:32.007Z,3.80
2019-03-19T18:45:02.081Z,3.80
2019-03-19T18:47:32.210Z,3.80
2019-03-19T18:50:02.349Z,3.70
2019-03-19T18:52:32.842Z,3.80
2019-03-19T18:55:03.080Z,3.80
2019-03-19T18:57:33.300Z,3.80
2019-03-19T19:00:03.454Z,3.80
2019-03-19T19:02:36.147Z,3.70
2019-03-19T19:05:09.078Z,3.80
2019-03-19T19:07:39.334Z,3.80
2019-03-19T19:10:10.613Z,3.80
2019-03-19T19:12:40.883Z,3.80
2019-03-19T19:15:13.323Z,3.80
2019-03-19T19:17:43.975Z,3.80
2019-03-19T19:20:14.200Z,3.80
2019-03-19T19:22:44.598Z,3.90
2019-03-19T19:25:15.981Z,3.90
2019-03-19T19:27:46.135Z,4.00
2019-03-19T19:30:17.866Z,3.90
2019-03-19T19:32:48.077Z,3.90
2019-03-19T19:35:18.345Z,4.00
2019-03-19T19:37:48.614Z,4.00
2019-03-19T19:40:18.769Z,4.00
2019-03-19T19:42:48.857Z,4.00
2019-03-19T19:45:20.204Z,4.00
2019-03-19T19:47:50.714Z,4.00
2019-03-19T19:50:21.199Z,4.10
2019-03-19T19:52:51.224Z,4.00
2019-03-19T19:55:21.544Z,4.00
2019-03-19T19:57:52.037Z,4.00
2019-03-19T20:00:22.400Z,4.00
2019-03-19T20:02:52.743Z,4.00
2019-03-19T20:05:23.151Z,4.00
2019-03-19T20:07:55.185Z,3.90
2019-03-19T20:10:25.401Z,3.90
2019-03-19T20:12:55.625Z,3.80
2019-03-19T20:15:26.113Z,3.80
2019-03-19T20:17:56.652Z,3.80
2019-03-19T20:20:26.992Z,3.80
2019-03-19T20:22:57.298Z,3.80
2019-03-19T20:25:27.400Z,3.80
2019-03-19T20:27:58.174Z,3.90
2019-03-19T20:30:28.600Z,3.90
2019-03-19T20:32:58.985Z,3.80
2019-03-19T20:35:29.234Z,3.80
2019-03-19T20:37:59.538Z,3.80
2019-03-19T20:40:29.757Z,3.70
2019-03-19T20:42:59.944Z,3.60
2019-03-19T20:45:30.131Z,3.50
2019-03-19T20:48:00.351Z,3.40
2019-03-19T20:50:30.675Z,3.40
2019-03-19T20:53:00.862Z,3.30
2019-03-19T20:55:30.958Z,3.20
2019-03-19T20:58:01.229Z,3.20
2019-03-19T21:00:31.429Z,3.10
2019-03-19T21:03:01.731Z,3.00
2019-03-19T21:05:32.082Z,2.90
2019-03-19T21:08:02.343Z,2.80
2019-03-19T21:10:32.553Z,2.80
2019-03-19T21:13:02.723Z,2.70
2019-03-19T21:15:33.107Z,2.70
2019-03-19T21:18:03.427Z,2.60
2019-03-19T21:20:33.603Z,2.60
2019-03-19T21:23:03.984Z,2.50
2019-03-19T21:25:34.230Z,2.40
2019-03-19T21:28:13.631Z,2.40
2019-03-19T21:30:36.843Z,2.30
2019-03-19T21:33:07.133Z,2.20
2019-03-19T21:35:37.389Z,2.20
2019-03-19T21:38:07.680Z,2.20
2019-03-19T21:40:37.950Z,2.10
2019-03-19T21:43:08.249Z,2.10
2019-03-19T21:45:38.479Z,2.10
2019-03-19T21:48:08.669Z,2.10
2019-03-19T21:50:38.926Z,2.00
2019-03-19T21:53:09.258Z,2.00
2019-03-19T21:55:39.573Z,2.00
2019-03-19T21:58:10.791Z,2.00
2019-03-19T22:00:41.095Z,2.00
2019-03-19T22:03:11.359Z,1.90
2019-03-19T22:05:41.432Z,1.90
2019-03-19T22:08:11.536Z,1.80
2019-03-19T22:10:41.614Z,1.80
2019-03-19T22:13:11.750Z,1.70
2019-03-19T22:15:41.785Z,1.70
2019-03-19T22:18:11.909Z,1.70
2019-03-19T22:20:42.187Z,1.70
2019-03-19T22:23:12.324Z,1.70
2019-03-19T22:25:42.616Z,1.70
2019-03-19T22:28:13.000Z,1.60
2019-03-19T22:30:43.379Z,1.60
2019-03-19T22:33:13.429Z,1.60
2019-03-19T22:35:43.585Z,1.60
2019-03-19T22:38:13.912Z,1.50
2019-03-19T22:40:44.136Z,1.40
2019-03-19T22:43:14.365Z,1.40
2019-03-19T22:45:44.778Z,1.40
2019-03-19T22:48:15.058Z,1.30
2019-03-19T22:50:45.229Z,1.40
2019-03-19T22:53:15.586Z,1.40
2019-03-19T22:55:46.981Z,1.40
2019-03-19T22:58:17.038Z,1.30
2019-03-19T23:00:50.257Z,1.40
2019-03-19T23:03:20.625Z,1.40
2019-03-19T23:05:50.850Z,1.40
2019-03-19T23:08:21.018Z,1.50
2019-03-19T23:10:51.218Z,1.50
2019-03-19T23:13:21.393Z,1.50
2019-03-19T23:15:51.683Z,1.60
2019-03-19T23:18:22.057Z,1.60
2019-03-19T23:20:52.217Z,1.60
2019-03-19T23:23:22.487Z,1.60
2019-03-19T23:25:53.450Z,1.60
2019-03-19T23:28:23.754Z,1.60
2019-03-19T23:30:53.889Z,1.60
2019-03-19T23:33:43.158Z,1.60
2019-03-19T23:36:13.315Z,1.50
2019-03-19T23:38:43.743Z,1.40
2019-03-19T23:41:13.870Z,1.40
2019-03-19T23:43:44.406Z,1.40
2019-03-19T23:46:14.570Z,1.40
2019-03-19T23:48:44.642Z,1.40
2019-03-19T23:51:14.938Z,1.40
2019-03-19T23:53:45.038Z,1.30
2019-03-19T23:56:15.209Z,1.30
2019-03-19T23:58:45.379Z,1.30
